createdAt,value
2023-03-06T00:01:08.319Z,21.50
2023-03-06T00:06:11.278Z,18.40
2023-03-06T00:11:15.674Z,27.60
2023-03-06T00:16:18.598Z,33.20
2023-03-06T00:21:21.586Z,25.60
2023-03-06T00:26:24.583Z,14.60
2023-03-06T00:31:27.508Z,27.30
2023-03-06T00:41:33.287Z,20.40
2023-03-06T00:46:36.289Z,24.50
2023-03-06T00:51:39.195Z,18.90
2023-03-06T00:56:42.097Z,23.80
2023-03-06T01:01:45.367Z,27.40
2023-03-06T01:06:48.987Z,24.20
2023-03-06T01:11:51.826Z,13.00
2023-03-06T01:16:54.729Z,11.50
2023-03-06T01:21:57.736Z,22.70
2023-03-06T01:27:00.522Z,20.90
2023-03-06T01:32:03.645Z,13.60
2023-03-06T01:37:06.764Z,12.20
2023-03-06T01:42:09.762Z,25.20
2023-03-06T01:47:12.668Z,9.40
2023-03-06T01:52:19.983Z,16.40
2023-03-06T01:57:30.662Z,20.80
2023-03-06T02:02:33.796Z,20.90
2023-03-06T02:07:38.615Z,21.60
2023-03-06T02:12:43.839Z,21.40
2023-03-06T02:17:48.562Z,15.50
2023-03-06T02:23:06.377Z,20.60
2023-03-06T02:28:15.632Z,24.40
2023-03-06T02:33:22.376Z,18.00
2023-03-06T02:38:48.066Z,15.50
2023-03-06T02:43:52.155Z,24.80
2023-03-06T02:48:55.684Z,27.20
2023-03-06T02:53:58.508Z,21.80
2023-03-06T02:59:01.410Z,18.60
2023-03-06T03:04:05.377Z,24.60
2023-03-06T03:09:08.249Z,24.10
2023-03-06T03:14:11.145Z,22.20
2023-03-06T03:19:14.567Z,37.60
2023-03-06T03:24:17.508Z,24.30
2023-03-06T03:34:23.786Z,23.30
2023-03-06T03:39:26.689Z,22.40
2023-03-06T03:44:29.594Z,18.00
2023-03-06T03:49:32.499Z,21.50
2023-03-06T03:54:35.509Z,19.60
2023-03-06T03:59:38.413Z,18.40
2023-03-06T04:04:41.347Z,23.70
2023-03-06T04:14:47.038Z,15.50
2023-03-06T04:19:49.916Z,20.40
2023-03-06T04:24:52.821Z,37.10
2023-03-06T04:29:56.568Z,27.00
2023-03-06T04:34:59.448Z,18.10
2023-03-06T04:40:02.351Z,29.40
2023-03-06T04:50:09.742Z,22.40
2023-03-06T04:55:14.914Z,17.30
2023-03-06T05:00:30.466Z,34.20
2023-03-06T05:05:33.350Z,40.80
2023-03-06T05:10:36.177Z,21.50
2023-03-06T05:15:42.256Z,35.40
2023-03-06T05:20:45.142Z,29.10
2023-03-06T05:25:48.035Z,23.50
2023-03-06T05:30:50.938Z,20.90
2023-03-06T05:35:53.894Z,38.40
2023-03-06T05:46:07.230Z,16.30
2023-03-06T05:51:11.260Z,38.90
2023-03-06T05:56:14.950Z,27.00
2023-03-06T06:01:20.351Z,29.00
2023-03-06T06:06:23.258Z,43.90
2023-03-06T06:11:26.152Z,33.00
2023-03-06T06:16:29.053Z,31.20
2023-03-06T06:21:31.965Z,19.00
2023-03-06T06:26:35.289Z,19.00
2023-03-06T06:31:39.707Z,22.10
2023-03-06T06:36:42.579Z,20.30
2023-03-06T06:42:05.521Z,14.50
2023-03-06T06:47:25.060Z,19.90
2023-03-06T06:52:28.408Z,24.60
2023-03-06T06:57:31.314Z,18.90
2023-03-06T07:02:34.587Z,21.20
2023-03-06T07:07:42.626Z,14.20
2023-03-06T07:12:45.849Z,13.10
2023-03-06T07:17:50.248Z,18.60
2023-03-06T07:22:53.351Z,14.60
2023-03-06T07:27:56.184Z,28.60
2023-03-06T07:33:00.146Z,26.70
2023-03-06T07:38:03.163Z,93.50
2023-03-06T07:43:18.758Z,42.00
2023-03-06T07:48:24.580Z,29.00
2023-03-06T07:53:28.231Z,23.30
2023-03-06T07:58:31.118Z,24.80
2023-03-06T08:03:35.092Z,34.70
2023-03-06T08:08:39.991Z,25.00
2023-03-06T08:13:43.238Z,25.30
2023-03-06T08:28:54.596Z,24.50
2023-03-06T08:34:00.109Z,25.10
2023-03-06T08:39:04.389Z,16.00
2023-03-06T08:44:07.287Z,17.40
2023-03-06T08:49:12.959Z,18.90
2023-03-06T08:54:17.423Z,19.10
2023-03-06T08:59:21.742Z,14.80
2023-03-06T09:04:24.949Z,26.90
2023-03-06T09:14:31.546Z,12.70
2023-03-06T09:19:34.604Z,12.90
2023-03-06T09:24:37.447Z,25.60
2023-03-06T09:29:43.289Z,15.70
2023-03-06T09:34:46.322Z,9.90
2023-03-06T09:39:49.331Z,8.00
2023-03-06T09:44:59.153Z,16.40
2023-03-06T09:50:40.152Z,23.40
2023-03-06T09:55:50.397Z,10.30
2023-03-06T10:01:24.824Z,34.50
2023-03-06T10:06:37.622Z,18.30
2023-03-06T10:12:18.516Z,11.80
2023-03-06T10:17:23.880Z,10.30
2023-03-06T10:22:31.736Z,20.80
2023-03-06T10:27:37.152Z,30.20
2023-03-06T10:32:48.347Z,12.00
2023-03-06T10:37:59.930Z,10.00
2023-03-06T10:43:11.459Z,6.50
2023-03-06T10:48:20.406Z,12.10
2023-03-06T10:53:31.338Z,11.10
2023-03-06T10:58:34.379Z,15.50
2023-03-06T11:03:37.517Z,6.80
2023-03-06T11:08:42.857Z,8.80
2023-03-06T11:13:57.782Z,12.00
2023-03-06T11:19:04.155Z,10.80
2023-03-06T11:24:20.166Z,10.00
2023-03-06T11:29:36.302Z,16.20
2023-03-06T11:34:52.402Z,9.90
2023-03-06T11:40:13.107Z,11.30
2023-03-06T11:45:25.608Z,10.00
2023-03-06T11:50:43.783Z,10.00
2023-03-06T11:56:00.039Z,12.10
2023-03-06T12:01:17.287Z,9.00
2023-03-06T12:06:35.122Z,9.60
2023-03-06T12:11:54.346Z,10.70
2023-03-06T12:17:02.117Z,7.30
2023-03-06T12:22:16.802Z,14.40
2023-03-06T12:27:32.851Z,11.80
2023-03-06T12:32:49.515Z,10.10
2023-03-06T12:37:58.591Z,45.50
2023-03-06T12:43:20.474Z,14.70
2023-03-06T12:48:28.225Z,16.50
2023-03-06T12:53:33.062Z,5.60
2023-03-06T12:58:47.141Z,5.80
2023-03-06T13:04:16.487Z,7.90
2023-03-06T13:09:28.762Z,10.10
2023-03-06T13:14:42.401Z,9.50
2023-03-06T13:20:13.124Z,7.30
2023-03-06T13:25:19.081Z,8.70
2023-03-06T13:30:27.296Z,7.60
2023-03-06T13:35:30.108Z,9.40
2023-03-06T13:40:35.340Z,13.20
2023-03-06T13:45:43.871Z,5.00
2023-03-06T13:50:47.771Z,12.30
2023-03-06T13:56:27.960Z,27.30
2023-03-06T14:02:12.357Z,20.70
2023-03-06T14:07:27.422Z,12.40
2023-03-06T14:12:38.158Z,14.80
2023-03-06T14:17:53.304Z,24.80
2023-03-06T14:23:22.447Z,9.10
2023-03-06T14:28:29.534Z,15.10
2023-03-06T14:33:56.655Z,20.70
2023-03-06T14:39:04.394Z,28.40
2023-03-06T14:44:17.812Z,16.60
2023-03-06T14:49:23.372Z,25.00
2023-03-06T14:54:31.109Z,17.70
2023-03-06T14:59:47.349Z,24.90
2023-03-06T15:05:25.121Z,22.50
2023-03-06T15:10:33.260Z,19.30
2023-03-06T15:15:36.213Z,16.90
2023-03-06T15:20:43.702Z,27.50
2023-03-06T15:25:52.766Z,39.10
2023-03-06T15:31:10.896Z,51.30
2023-03-06T15:36:27.676Z,30.70
2023-03-06T15:41:35.766Z,52.90
2023-03-06T15:46:38.739Z,55.50
2023-03-06T15:51:41.567Z,55.10
2023-03-06T15:56:58.045Z,62.70
2023-03-06T16:02:11.201Z,67.70
2023-03-06T16:07:14.619Z,63.60
2023-03-06T16:12:20.594Z,44.20
2023-03-06T16:17:23.393Z,38.60
2023-03-06T16:22:26.426Z,51.40
2023-03-06T16:27:29.316Z,58.50
2023-03-06T16:32:32.153Z,52.90
2023-03-06T16:37:35.106Z,82.00
2023-03-06T16:42:38.114Z,194.10
2023-03-06T16:47:41.935Z,43.70
2023-03-06T16:52:44.739Z,55.90
2023-03-06T16:57:47.913Z,42.60
2023-03-06T17:07:55.353Z,72.60
2023-03-06T17:12:58.305Z,74.80
2023-03-06T17:18:01.116Z,69.90
2023-03-06T17:23:04.003Z,90.40
2023-03-06T17:28:06.805Z,176.10
2023-03-06T17:33:09.811Z,104.10
2023-03-06T17:38:12.690Z,69.50
2023-03-06T17:43:15.627Z,57.80
2023-03-06T17:48:18.521Z,80.90
2023-03-06T17:53:22.346Z,147.50
2023-03-06T17:58:26.388Z,134.80
2023-03-06T18:03:29.280Z,115.10
2023-03-06T18:08:32.445Z,110.10
2023-03-06T18:13:39.288Z,173.40
2023-03-06T18:18:42.391Z,153.70
2023-03-06T18:23:45.295Z,142.70
2023-03-06T18:28:52.294Z,156.10
2023-03-06T18:33:57.604Z,151.10
2023-03-06T18:39:03.793Z,93.90
2023-03-06T18:44:07.003Z,129.60
2023-03-06T18:49:11.437Z,124.80
2023-03-06T18:54:14.394Z,116.50
2023-03-06T18:59:18.950Z,84.80
2023-03-06T19:04:22.067Z,87.40
2023-03-06T19:09:24.947Z,71.00
2023-03-06T19:14:28.728Z,74.70
2023-03-06T19:19:31.577Z,75.10
2023-03-06T19:24:34.595Z,60.20
2023-03-06T19:29:38.718Z,70.50
2023-03-06T19:34:41.624Z,60.10
2023-03-06T19:39:44.526Z,78.60
2023-03-06T19:44:47.430Z,73.30
2023-03-06T19:49:50.339Z,114.10
2023-03-06T19:59:58.505Z,81.80
2023-03-06T20:05:01.608Z,87.20
2023-03-06T20:10:05.176Z,88.20
2023-03-06T20:15:08.619Z,95.90
2023-03-06T20:20:12.513Z,141.50
2023-03-06T20:25:15.589Z,107.00
2023-03-06T20:30:18.466Z,96.60
2023-03-06T20:35:21.697Z,83.60
2023-03-06T20:40:24.679Z,98.50
2023-03-06T20:45:27.999Z,108.30
2023-03-06T20:50:30.904Z,160.40
2023-03-06T20:55:37.647Z,114.50
2023-03-06T21:00:41.492Z,144.00
2023-03-06T21:05:47.781Z,155.90
2023-03-06T21:10:51.015Z,164.30
2023-03-06T21:15:53.963Z,244.80
2023-03-06T21:20:56.823Z,141.10
2023-03-06T21:25:59.842Z,187.90
2023-03-06T21:36:06.182Z,234.30
2023-03-06T21:41:16.942Z,231.00
2023-03-06T21:46:19.876Z,234.90
2023-03-06T21:51:23.817Z,198.50
2023-03-06T21:56:28.611Z,225.40
2023-03-06T22:01:31.551Z,240.50
2023-03-06T22:06:34.535Z,195.60
2023-03-06T22:11:37.537Z,140.90
2023-03-06T22:16:40.907Z,151.50
2023-03-06T22:21:43.756Z,213.80
2023-03-06T22:26:46.656Z,151.10
2023-03-06T22:36:53.279Z,178.60
2023-03-06T22:41:56.771Z,243.80
2023-03-06T22:46:59.695Z,131.50
2023-03-06T22:52:02.600Z,153.10
2023-03-06T22:57:05.507Z,129.00
2023-03-06T23:02:08.415Z,122.20
2023-03-06T23:07:11.316Z,76.60
2023-03-06T23:12:14.319Z,69.10
2023-03-06T23:22:20.028Z,138.50
2023-03-06T23:27:22.944Z,132.60
2023-03-06T23:32:25.906Z,143.30
2023-03-06T23:37:28.952Z,148.50
2023-03-06T23:47:35.567Z,221.40
2023-03-06T23:57:41.788Z,109.30
